sensor_id;sensor_type;location;lat;lon;timestamp;P1;durP1;ratioP1;P2;durP2;ratioP2
16543;SDS011;8384;47.996;7.786;2024-03-23T00:54:09;2.10;;;1.80;;
16543;SDS011;8384;47.996;7.786;2024-03-23T00:56:34;2.13;;;1.63;;
16543;SDS011;8384;47.996;7.786;2024-03-23T00:58:59;2.67;;;1.70;;
16543;SDS011;8384;47.996;7.786;2024-03-23T01:01:28;2.23;;;1.70;;
16543;SDS011;8384;47.996;7.786;2024-03-23T01:03:53;2.53;;;1.87;;
16543;SDS011;8384;47.996;7.786;2024-03-23T01:06:18;3.80;;;1.80;;
16543;SDS011;8384;47.996;7.786;2024-03-23T01:08:46;1.77;;;1.67;;
16543;SDS011;8384;47.996;7.786;2024-03-23T01:11:12;2.10;;;1.67;;
16543;SDS011;8384;47.996;7.786;2024-03-23T01:13:40;2.90;;;2.10;;
16543;SDS011;8384;47.996;7.786;2024-03-23T01:16:11;3.15;;;2.13;;
16543;SDS011;8384;47.996;7.786;2024-03-23T01:18:40;4.47;;;2.00;;
16543;SDS011;8384;47.996;7.786;2024-03-23T01:21:11;2.00;;;1.77;;
16543;SDS011;8384;47.996;7.786;2024-03-23T01:23:42;2.00;;;1.80;;
16543;SDS011;8384;47.996;7.786;2024-03-23T01:26:10;2.67;;;1.80;;
16543;SDS011;8384;47.996;7.786;2024-03-23T01:28:38;2.60;;;1.90;;
16543;SDS011;8384;47.996;7.786;2024-03-23T01:31:07;2.27;;;1.77;;
16543;SDS011;8384;47.996;7.786;2024-03-23T01:33:32;2.43;;;1.77;;
16543;SDS011;8384;47.996;7.786;2024-03-23T01:35:58;3.60;;;1.80;;
16543;SDS011;8384;47.996;7.786;2024-03-23T01:38:23;4.33;;;1.80;;
16543;SDS011;8384;47.996;7.786;2024-03-23T01:40:56;1.83;;;1.70;;
16543;SDS011;8384;47.996;7.786;2024-03-23T01:43:28;3.83;;;1.90;;
16543;SDS011;8384;47.996;7.786;2024-03-23T01:45:54;2.53;;;1.73;;
16543;SDS011;8384;47.996;7.786;2024-03-23T01:48:19;3.10;;;1.80;;
16543;SDS011;8384;47.996;7.786;2024-03-23T01:50:46;2.60;;;1.80;;
16543;SDS011;8384;47.996;7.786;2024-03-23T01:53:11;2.43;;;2.03;;
16543;SDS011;8384;47.996;7.786;2024-03-23T01:55:50;3.13;;;2.00;;
16543;SDS011;8384;47.996;7.786;2024-03-23T01:58:22;2.70;;;1.70;;
16543;SDS011;8384;47.996;7.786;2024-03-23T02:00:48;1.70;;;1.60;;
16543;SDS011;8384;47.996;7.786;2024-03-23T02:03:26;2.10;;;1.95;;
16543;SDS011;8384;47.996;7.786;2024-03-23T02:05:53;3.43;;;2.10;;
16543;SDS011;8384;47.996;7.786;2024-03-23T02:08:20;5.07;;;2.87;;
16543;SDS011;8384;47.996;7.786;2024-03-23T02:10:47;2.40;;;2.13;;
16543;SDS011;8384;47.996;7.786;2024-03-23T02:13:14;2.50;;;2.30;;
16543;SDS011;8384;47.996;7.786;2024-03-23T02:15:39;3.27;;;2.03;;
16543;SDS011;8384;47.996;7.786;2024-03-23T02:18:04;2.10;;;1.90;;
16543;SDS011;8384;47.996;7.786;2024-03-23T02:20:30;2.47;;;1.97;;
16543;SDS011;8384;47.996;7.786;2024-03-23T02:22:55;3.80;;;2.93;;
16543;SDS011;8384;47.996;7.786;2024-03-23T02:25:20;3.87;;;2.27;;
16543;SDS011;8384;47.996;7.786;2024-03-23T02:27:46;3.38;;;2.30;;
16543;SDS011;8384;47.996;7.786;2024-03-23T02:30:11;3.33;;;2.40;;
16543;SDS011;8384;47.996;7.786;2024-03-23T02:32:36;4.00;;;2.30;;
16543;SDS011;8384;47.996;7.786;2024-03-23T02:35:02;3.63;;;2.27;;
16543;SDS011;8384;47.996;7.786;2024-03-23T02:37:27;5.20;;;2.90;;
16543;SDS011;8384;47.996;7.786;2024-03-23T02:39:52;2.50;;;2.30;;
16543;SDS011;8384;47.996;7.786;2024-03-23T02:42:17;2.87;;;2.50;;
16543;SDS011;8384;47.996;7.786;2024-03-23T02:44:43;2.40;;;2.20;;
16543;SDS011;8384;47.996;7.786;2024-03-23T02:47:09;3.57;;;2.50;;
16543;SDS011;8384;47.996;7.786;2024-03-23T02:49:34;3.70;;;2.60;;
16543;SDS011;8384;47.996;7.786;2024-03-23T02:52:00;3.33;;;2.47;;
16543;SDS011;8384;47.996;7.786;2024-03-23T02:54:25;3.53;;;2.47;;
16543;SDS011;8384;47.996;7.786;2024-03-23T02:56:51;3.07;;;2.50;;
16543;SDS011;8384;47.996;7.786;2024-03-23T02:59:16;2.37;;;2.17;;
16543;SDS011;8384;47.996;7.786;2024-03-23T03:01:41;3.60;;;2.97;;
16543;SDS011;8384;47.996;7.786;2024-03-23T03:04:06;2.77;;;2.40;;
16543;SDS011;8384;47.996;7.786;2024-03-23T03:06:32;3.00;;;2.40;;
16543;SDS011;8384;47.996;7.786;2024-03-23T03:08:57;2.70;;;2.33;;
16543;SDS011;8384;47.996;7.786;2024-03-23T03:11:23;3.03;;;2.50;;
16543;SDS011;8384;47.996;7.786;2024-03-23T03:13:48;3.80;;;2.37;;
16543;SDS011;8384;47.996;7.786;2024-03-23T03:16:13;3.20;;;2.43;;
16543;SDS011;8384;47.996;7.786;2024-03-23T03:18:39;3.23;;;2.43;;
16543;SDS011;8384;47.996;7.786;2024-03-23T03:21:08;3.60;;;2.60;;
16543;SDS011;8384;47.996;7.786;2024-03-23T03:23:38;3.80;;;2.43;;
16543;SDS011;8384;47.996;7.786;2024-03-23T03:26:04;3.30;;;2.90;;
16543;SDS011;8384;47.996;7.786;2024-03-23T03:28:31;3.03;;;2.70;;
16543;SDS011;8384;47.996;7.786;2024-03-23T03:30:57;3.87;;;2.70;;
16543;SDS011;8384;47.996;7.786;2024-03-23T03:33:23;5.50;;;2.60;;
16543;SDS011;8384;47.996;7.786;2024-03-23T03:35:48;2.80;;;2.50;;
16543;SDS011;8384;47.996;7.786;2024-03-23T03:38:14;3.80;;;2.37;;
16543;SDS011;8384;47.996;7.786;2024-03-23T03:40:39;5.43;;;2.50;;
16543;SDS011;8384;47.996;7.786;2024-03-23T03:43:04;5.23;;;2.80;;
16543;SDS011;8384;47.996;7.786;2024-03-23T03:45:30;3.20;;;2.60;;
16543;SDS011;8384;47.996;7.786;2024-03-23T03:47:55;3.13;;;2.50;;
16543;SDS011;8384;47.996;7.786;2024-03-23T03:50:21;5.10;;;2.50;;
16543;SDS011;8384;47.996;7.786;2024-03-23T03:52:47;3.63;;;2.80;;
16543;SDS011;8384;47.996;7.786;2024-03-23T03:55:12;4.23;;;3.17;;
16543;SDS011;8384;47.996;7.786;2024-03-23T03:57:39;3.27;;;2.97;;
16543;SDS011;8384;47.996;7.786;2024-03-23T04:00:04;4.80;;;2.67;;
16543;SDS011;8384;47.996;7.786;2024-03-23T04:02:30;3.20;;;2.90;;
16543;SDS011;8384;47.996;7.786;2024-03-23T04:04:56;4.30;;;3.03;;
16543;SDS011;8384;47.996;7.786;2024-03-23T04:07:21;4.13;;;2.90;;
16543;SDS011;8384;47.996;7.786;2024-03-23T04:09:47;3.70;;;2.80;;
16543;SDS011;8384;47.996;7.786;2024-03-23T04:12:13;3.47;;;2.67;;
16543;SDS011;8384;47.996;7.786;2024-03-23T04:14:38;4.40;;;2.77;;
16543;SDS011;8384;47.996;7.786;2024-03-23T04:17:04;3.00;;;2.60;;
16543;SDS011;8384;47.996;7.786;2024-03-23T04:19:29;3.50;;;3.00;;
16543;SDS011;8384;47.996;7.786;2024-03-23T04:21:54;4.90;;;3.60;;
16543;SDS011;8384;47.996;7.786;2024-03-23T04:24:19;4.20;;;3.10;;
16543;SDS011;8384;47.996;7.786;2024-03-23T04:26:47;3.88;;;3.22;;
16543;SDS011;8384;47.996;7.786;2024-03-23T04:29:12;4.68;;;3.40;;
16543;SDS011;8384;47.996;7.786;2024-03-23T04:31:38;3.33;;;3.03;;
16543;SDS011;8384;47.996;7.786;2024-03-23T04:34:04;4.67;;;2.90;;
16543;SDS011;8384;47.996;7.786;2024-03-23T04:36:29;4.43;;;3.07;;
16543;SDS011;8384;47.996;7.786;2024-03-23T04:38:55;4.87;;;3.10;;
16543;SDS011;8384;47.996;7.786;2024-03-23T04:41:21;5.10;;;3.53;;
16543;SDS011;8384;47.996;7.786;2024-03-23T04:43:47;5.13;;;3.30;;
16543;SDS011;8384;47.996;7.786;2024-03-23T04:46:12;4.80;;;3.07;;
16543;SDS011;8384;47.996;7.786;2024-03-23T04:48:37;5.70;;;3.40;;
16543;SDS011;8384;47.996;7.786;2024-03-23T04:51:03;4.23;;;3.60;;
16543;SDS011;8384;47.996;7.786;2024-03-23T04:53:29;4.93;;;3.40;;
16543;SDS011;8384;47.996;7.786;2024-03-23T04:55:55;4.20;;;3.30;;
16543;SDS011;8384;47.996;7.786;2024-03-23T04:58:21;4.07;;;3.73;;
16543;SDS011;8384;47.996;7.786;2024-03-23T05:00:47;4.63;;;3.97;;
16543;SDS011;8384;47.996;7.786;2024-03-23T05:03:13;5.50;;;3.97;;
16543;SDS011;8384;47.996;7.786;2024-03-23T05:05:38;5.73;;;4.50;;
16543;SDS011;8384;47.996;7.786;2024-03-23T05:08:04;6.57;;;4.23;;
16543;SDS011;8384;47.996;7.786;2024-03-23T05:10:30;6.67;;;3.80;;
16543;SDS011;8384;47.996;7.786;2024-03-23T05:12:57;6.10;;;3.90;;
16543;SDS011;8384;47.996;7.786;2024-03-23T05:15:22;5.70;;;4.10;;
16543;SDS011;8384;47.996;7.786;2024-03-23T05:17:48;3.90;;;3.40;;
16543;SDS011;8384;47.996;7.786;2024-03-23T05:20:13;4.70;;;3.90;;
16543;SDS011;8384;47.996;7.786;2024-03-23T05:22:39;4.27;;;3.87;;
16543;SDS011;8384;47.996;7.786;2024-03-23T05:25:04;4.20;;;3.80;;
16543;SDS011;8384;47.996;7.786;2024-03-23T05:27:31;5.03;;;3.67;;
16543;SDS011;8384;47.996;7.786;2024-03-23T05:29:58;3.83;;;3.53;;
16543;SDS011;8384;47.996;7.786;2024-03-23T05:32:23;4.00;;;3.60;;
16543;SDS011;8384;47.996;7.786;2024-03-23T05:34:49;4.73;;;3.60;;
16543;SDS011;8384;47.996;7.786;2024-03-23T05:37:15;5.70;;;3.87;;
16543;SDS011;8384;47.996;7.786;2024-03-23T05:39:40;4.10;;;3.80;;
16543;SDS011;8384;47.996;7.786;2024-03-23T05:42:06;3.70;;;3.40;;
16543;SDS011;8384;47.996;7.786;2024-03-23T05:44:31;4.73;;;3.77;;
16543;SDS011;8384;47.996;7.786;2024-03-23T05:46:56;4.43;;;4.03;;
16543;SDS011;8384;47.996;7.786;2024-03-23T05:49:22;4.70;;;4.30;;
16543;SDS011;8384;47.996;7.786;2024-03-23T05:51:47;5.23;;;4.30;;
16543;SDS011;8384;47.996;7.786;2024-03-23T05:54:13;6.13;;;3.87;;
16543;SDS011;8384;47.996;7.786;2024-03-23T05:56:38;4.10;;;3.70;;
16543;SDS011;8384;47.996;7.786;2024-03-23T05:59:03;4.43;;;4.00;;
16543;SDS011;8384;47.996;7.786;2024-03-23T06:01:29;4.63;;;4.13;;
16543;SDS011;8384;47.996;7.786;2024-03-23T06:03:57;4.87;;;4.47;;
16543;SDS011;8384;47.996;7.786;2024-03-23T06:06:22;6.03;;;4.60;;
16543;SDS011;8384;47.996;7.786;2024-03-23T06:08:48;4.63;;;4.17;;
16543;SDS011;8384;47.996;7.786;2024-03-23T06:11:14;2.33;;;2.13;;
16543;SDS011;8384;47.996;7.786;2024-03-23T06:13:39;3.33;;;1.70;;
16543;SDS011;8384;47.996;7.786;2024-03-23T06:16:04;1.80;;;1.40;;
16543;SDS011;8384;47.996;7.786;2024-03-23T06:18:30;2.07;;;1.87;;
16543;SDS011;8384;47.996;7.786;2024-03-23T06:20:56;2.40;;;2.10;;
16543;SDS011;8384;47.996;7.786;2024-03-23T06:23:22;2.20;;;2.00;;
16543;SDS011;8384;47.996;7.786;2024-03-23T06:25:47;1.30;;;1.20;;
16543;SDS011;8384;47.996;7.786;2024-03-23T06:28:13;1.67;;;1.00;;
16543;SDS011;8384;47.996;7.786;2024-03-23T06:30:38;0.60;;;0.60;;
16543;SDS011;8384;47.996;7.786;2024-03-23T06:33:04;0.40;;;0.40;;
16543;SDS011;8384;47.996;7.786;2024-03-23T06:35:30;0.40;;;0.37;;
16543;SDS011;8384;47.996;7.786;2024-03-23T06:37:56;1.70;;;0.30;;
16543;SDS011;8384;47.996;7.786;2024-03-23T06:40:21;0.20;;;0.20;;
16543;SDS011;8384;47.996;7.786;2024-03-23T06:42:46;0.73;;;0.30;;
16543;SDS011;8384;47.996;7.786;2024-03-23T06:45:11;0.13;;;0.13;;
16543;SDS011;8384;47.996;7.786;2024-03-23T06:47:37;0.37;;;0.30;;
16543;SDS011;8384;47.996;7.786;2024-03-23T06:50:02;0.20;;;0.20;;
16543;SDS011;8384;47.996;7.786;2024-03-23T06:52:28;0.20;;;0.20;;
16543;SDS011;8384;47.996;7.786;2024-03-23T06:54:54;0.33;;;0.30;;
16543;SDS011;8384;47.996;7.786;2024-03-23T06:57:19;0.50;;;0.50;;
16543;SDS011;8384;47.996;7.786;2024-03-23T06:59:44;0.37;;;0.33;;
16543;SDS011;8384;47.996;7.786;2024-03-23T07:02:10;0.30;;;0.30;;
16543;SDS011;8384;47.996;7.786;2024-03-23T07:04:35;1.60;;;0.20;;
16543;SDS011;8384;47.996;7.786;2024-03-23T07:07:01;1.60;;;0.20;;
16543;SDS011;8384;47.996;7.786;2024-03-23T07:09:30;0.27;;;0.27;;
16543;SDS011;8384;47.996;7.786;2024-03-23T07:11:56;0.20;;;0.17;;
16543;SDS011;8384;47.996;7.786;2024-03-23T07:14:22;0.20;;;0.20;;
16543;SDS011;8384;47.996;7.786;2024-03-23T07:16:47;0.20;;;0.20;;
16543;SDS011;8384;47.996;7.786;2024-03-23T07:19:14;0.23;;;0.23;;
16543;SDS011;8384;47.996;7.786;2024-03-23T07:21:41;0.30;;;0.13;;
16543;SDS011;8384;47.996;7.786;2024-03-23T07:24:07;0.20;;;0.20;;
16543;SDS011;8384;47.996;7.786;2024-03-23T07:26:32;0.20;;;0.20;;
16543;SDS011;8384;47.996;7.786;2024-03-23T07:28:57;0.23;;;0.23;;
16543;SDS011;8384;47.996;7.786;2024-03-23T07:31:23;0.30;;;0.30;;
16543;SDS011;8384;47.996;7.786;2024-03-23T07:33:49;0.87;;;0.30;;
16543;SDS011;8384;47.996;7.786;2024-03-23T07:36:14;0.10;;;0.10;;
16543;SDS011;8384;47.996;7.786;2024-03-23T07:38:40;0.50;;;0.30;;
16543;SDS011;8384;47.996;7.786;2024-03-23T07:41:07;0.40;;;0.20;;
16543;SDS011;8384;47.996;7.786;2024-03-23T07:43:34;0.33;;;0.23;;
16543;SDS011;8384;47.996;7.786;2024-03-23T07:45:59;0.20;;;0.20;;
16543;SDS011;8384;47.996;7.786;2024-03-23T07:48:25;0.20;;;0.20;;
16543;SDS011;8384;47.996;7.786;2024-03-23T07:50:58;0.83;;;0.20;;
16543;SDS011;8384;47.996;7.786;2024-03-23T07:53:39;0.20;;;0.20;;
16543;SDS011;8384;47.996;7.786;2024-03-23T07:56:08;0.20;;;0.20;;
16543;SDS011;8384;47.996;7.786;2024-03-23T07:58:35;1.03;;;0.40;;
16543;SDS011;8384;47.996;7.786;2024-03-23T08:01:08;1.30;;;0.60;;
16543;SDS011;8384;47.996;7.786;2024-03-23T08:03:37;1.37;;;0.40;;
16543;SDS011;8384;47.996;7.786;2024-03-23T08:08:33;0.73;;;0.57;;
16543;SDS011;8384;47.996;7.786;2024-03-23T08:10:58;1.00;;;0.70;;
16543;SDS011;8384;47.996;7.786;2024-03-23T08:13:24;0.77;;;0.60;;
16543;SDS011;8384;47.996;7.786;2024-03-23T08:15:49;0.87;;;0.77;;
16543;SDS011;8384;47.996;7.786;2024-03-23T08:18:14;1.47;;;0.83;;
16543;SDS011;8384;47.996;7.786;2024-03-23T08:20:40;1.87;;;0.70;;
16543;SDS011;8384;47.996;7.786;2024-03-23T08:23:06;1.97;;;1.17;;
16543;SDS011;8384;47.996;7.786;2024-03-23T08:25:32;5.03;;;1.43;;
16543;SDS011;8384;47.996;7.786;2024-03-23T08:27:57;3.50;;;1.10;;
16543;SDS011;8384;47.996;7.786;2024-03-23T08:30:23;5.23;;;1.53;;
16543;SDS011;8384;47.996;7.786;2024-03-23T08:32:48;4.83;;;1.47;;
16543;SDS011;8384;47.996;7.786;2024-03-23T08:35:13;2.03;;;1.40;;
16543;SDS011;8384;47.996;7.786;2024-03-23T08:37:39;3.20;;;1.40;;
16543;SDS011;8384;47.996;7.786;2024-03-23T08:40:04;4.37;;;1.97;;
16543;SDS011;8384;47.996;7.786;2024-03-23T08:42:30;4.47;;;1.50;;
16543;SDS011;8384;47.996;7.786;2024-03-23T08:44:55;3.73;;;1.90;;
16543;SDS011;8384;47.996;7.786;2024-03-23T08:47:21;3.57;;;1.53;;
16543;SDS011;8384;47.996;7.786;2024-03-23T08:49:46;2.17;;;1.70;;
16543;SDS011;8384;47.996;7.786;2024-03-23T08:52:11;3.73;;;1.83;;
16543;SDS011;8384;47.996;7.786;2024-03-23T08:54:36;7.10;;;1.90;;
16543;SDS011;8384;47.996;7.786;2024-03-23T08:57:02;4.33;;;1.90;;
16543;SDS011;8384;47.996;7.786;2024-03-23T08:59:27;3.97;;;1.80;;
16543;SDS011;8384;47.996;7.786;2024-03-23T09:01:53;7.00;;;2.17;;
16543;SDS011;8384;47.996;7.786;2024-03-23T09:04:18;4.63;;;2.00;;
16543;SDS011;8384;47.996;7.786;2024-03-23T09:06:44;6.00;;;1.60;;
16543;SDS011;8384;47.996;7.786;2024-03-23T09:09:09;5.83;;;1.90;;
16543;SDS011;8384;47.996;7.786;2024-03-23T09:11:34;2.77;;;1.60;;
16543;SDS011;8384;47.996;7.786;2024-03-23T09:14:00;3.37;;;2.10;;
16543;SDS011;8384;47.996;7.786;2024-03-23T09:16:25;5.07;;;2.07;;
16543;SDS011;8384;47.996;7.786;2024-03-23T09:18:51;2.93;;;1.97;;
16543;SDS011;8384;47.996;7.786;2024-03-23T09:21:17;4.60;;;2.00;;
16543;SDS011;8384;47.996;7.786;2024-03-23T09:23:43;4.33;;;2.27;;
16543;SDS011;8384;47.996;7.786;2024-03-23T09:26:09;3.87;;;1.77;;
16543;SDS011;8384;47.996;7.786;2024-03-23T09:28:34;6.13;;;1.70;;
16543;SDS011;8384;47.996;7.786;2024-03-23T09:31:06;3.23;;;1.70;;
16543;SDS011;8384;47.996;7.786;2024-03-23T09:33:35;3.20;;;1.50;;
16543;SDS011;8384;47.996;7.786;2024-03-23T09:36:04;4.80;;;1.57;;
16543;SDS011;8384;47.996;7.786;2024-03-23T09:38:30;3.40;;;1.43;;
16543;SDS011;8384;47.996;7.786;2024-03-23T09:40:56;4.17;;;1.47;;
16543;SDS011;8384;47.996;7.786;2024-03-23T09:43:22;2.20;;;1.20;;
16543;SDS011;8384;47.996;7.786;2024-03-23T09:45:47;3.60;;;1.40;;
16543;SDS011;8384;47.996;7.786;2024-03-23T09:48:14;2.80;;;1.30;;
16543;SDS011;8384;47.996;7.786;2024-03-23T09:50:41;3.20;;;1.43;;
16543;SDS011;8384;47.996;7.786;2024-03-23T09:53:08;2.20;;;1.23;;
16543;SDS011;8384;47.996;7.786;2024-03-23T09:55:34;4.03;;;1.20;;
16543;SDS011;8384;47.996;7.786;2024-03-23T09:58:00;5.87;;;1.60;;
16543;SDS011;8384;47.996;7.786;2024-03-23T10:00:26;3.43;;;1.77;;
16543;SDS011;8384;47.996;7.786;2024-03-23T10:02:51;3.23;;;1.40;;
16543;SDS011;8384;47.996;7.786;2024-03-23T10:05:20;4.40;;;1.60;;
16543;SDS011;8384;47.996;7.786;2024-03-23T10:07:48;4.50;;;1.33;;
16543;SDS011;8384;47.996;7.786;2024-03-23T10:10:16;3.90;;;1.80;;
16543;SDS011;8384;47.996;7.786;2024-03-23T10:12:46;3.77;;;1.70;;
16543;SDS011;8384;47.996;7.786;2024-03-23T10:15:17;3.03;;;1.40;;
16543;SDS011;8384;47.996;7.786;2024-03-23T10:17:49;4.10;;;1.47;;
16543;SDS011;8384;47.996;7.786;2024-03-23T10:20:19;6.50;;;2.00;;
16543;SDS011;8384;47.996;7.786;2024-03-23T10:22:47;6.83;;;1.93;;
16543;SDS011;8384;47.996;7.786;2024-03-23T10:25:14;6.30;;;1.80;;
16543;SDS011;8384;47.996;7.786;2024-03-23T10:27:39;5.93;;;1.83;;
16543;SDS011;8384;47.996;7.786;2024-03-23T10:30:08;3.20;;;1.60;;
16543;SDS011;8384;47.996;7.786;2024-03-23T10:32:35;4.97;;;1.30;;
16543;SDS011;8384;47.996;7.786;2024-03-23T10:35:13;2.07;;;1.20;;
16543;SDS011;8384;47.996;7.786;2024-03-23T10:37:40;1.50;;;0.90;;
16543;SDS011;8384;47.996;7.786;2024-03-23T10:40:06;3.83;;;1.27;;
16543;SDS011;8384;47.996;7.786;2024-03-23T10:42:32;2.40;;;1.17;;
16543;SDS011;8384;47.996;7.786;2024-03-23T10:44:58;1.30;;;0.87;;
16543;SDS011;8384;47.996;7.786;2024-03-23T10:47:23;0.80;;;0.80;;
16543;SDS011;8384;47.996;7.786;2024-03-23T10:49:49;1.80;;;0.90;;
16543;SDS011;8384;47.996;7.786;2024-03-23T10:52:14;1.27;;;0.80;;
16543;SDS011;8384;47.996;7.786;2024-03-23T10:54:39;2.70;;;0.70;;
16543;SDS011;8384;47.996;7.786;2024-03-23T10:57:10;0.80;;;0.53;;
16543;SDS011;8384;47.996;7.786;2024-03-23T10:59:39;3.30;;;0.90;;
16543;SDS011;8384;47.996;7.786;2024-03-23T11:02:05;1.87;;;1.00;;
16543;SDS011;8384;47.996;7.786;2024-03-23T11:04:36;2.73;;;1.13;;
16543;SDS011;8384;47.996;7.786;2024-03-23T11:09:48;1.70;;;0.80;;
16543;SDS011;8384;47.996;7.786;2024-03-23T11:15:00;2.37;;;1.10;;
16543;SDS011;8384;47.996;7.786;2024-03-23T11:17:27;5.37;;;2.13;;
16543;SDS011;8384;47.996;7.786;2024-03-23T11:19:57;5.23;;;2.33;;
16543;SDS011;8384;47.996;7.786;2024-03-23T11:25:24;3.30;;;1.93;;
16543;SDS011;8384;47.996;7.786;2024-03-23T11:27:51;3.53;;;2.00;;
16543;SDS011;8384;47.996;7.786;2024-03-23T11:30:22;2.90;;;1.70;;
16543;SDS011;8384;47.996;7.786;2024-03-23T11:32:48;2.93;;;1.63;;
16543;SDS011;8384;47.996;7.786;2024-03-23T11:35:33;4.40;;;2.30;;
16543;SDS011;8384;47.996;7.786;2024-03-23T11:38:08;3.37;;;1.37;;
16543;SDS011;8384;47.996;7.786;2024-03-23T11:40:35;1.83;;;1.30;;
16543;SDS011;8384;47.996;7.786;2024-03-23T11:43:06;1.10;;;1.00;;
16543;SDS011;8384;47.996;7.786;2024-03-23T11:45:33;3.30;;;1.70;;
16543;SDS011;8384;47.996;7.786;2024-03-23T11:48:04;1.57;;;1.20;;
16543;SDS011;8384;47.996;7.786;2024-03-23T11:50:30;2.03;;;1.30;;
16543;SDS011;8384;47.996;7.786;2024-03-23T11:55:43;1.40;;;1.20;;
16543;SDS011;8384;47.996;7.786;2024-03-23T11:58:09;1.77;;;0.90;;
16543;SDS011;8384;47.996;7.786;2024-03-23T12:00:35;0.73;;;0.60;;
16543;SDS011;8384;47.996;7.786;2024-03-23T12:03:04;1.67;;;0.90;;
16543;SDS011;8384;47.996;7.786;2024-03-23T12:05:30;2.23;;;1.10;;
16543;SDS011;8384;47.996;7.786;2024-03-23T12:08:14;2.20;;;1.00;;
16543;SDS011;8384;47.996;7.786;2024-03-23T12:10:44;4.03;;;0.83;;
16543;SDS011;8384;47.996;7.786;2024-03-23T12:13:14;2.47;;;1.07;;
16543;SDS011;8384;47.996;7.786;2024-03-23T12:15:40;4.10;;;1.30;;
16543;SDS011;8384;47.996;7.786;2024-03-23T12:18:06;2.97;;;1.20;;
16543;SDS011;8384;47.996;7.786;2024-03-23T12:20:32;3.17;;;1.00;;
16543;SDS011;8384;47.996;7.786;2024-03-23T12:23:07;3.43;;;1.40;;
16543;SDS011;8384;47.996;7.786;2024-03-23T12:25:33;3.83;;;1.53;;
16543;SDS011;8384;47.996;7.786;2024-03-23T12:27:59;5.20;;;1.30;;
16543;SDS011;8384;47.996;7.786;2024-03-23T12:30:24;4.20;;;1.40;;
16543;SDS011;8384;47.996;7.786;2024-03-23T12:32:50;5.90;;;1.53;;
16543;SDS011;8384;47.996;7.786;2024-03-23T12:35:15;2.87;;;1.60;;
16543;SDS011;8384;47.996;7.786;2024-03-23T12:37:40;2.77;;;1.03;;
16543;SDS011;8384;47.996;7.786;2024-03-23T12:40:06;2.63;;;1.00;;
16543;SDS011;8384;47.996;7.786;2024-03-23T12:42:32;2.27;;;0.80;;
16543;SDS011;8384;47.996;7.786;2024-03-23T12:44:58;3.03;;;1.20;;
16543;SDS011;8384;47.996;7.786;2024-03-23T12:47:23;2.53;;;1.20;;
16543;SDS011;8384;47.996;7.786;2024-03-23T12:49:48;5.37;;;1.33;;
16543;SDS011;8384;47.996;7.786;2024-03-23T12:52:14;1.23;;;0.60;;
16543;SDS011;8384;47.996;7.786;2024-03-23T12:54:40;3.47;;;1.07;;
16543;SDS011;8384;47.996;7.786;2024-03-23T12:57:05;2.17;;;0.77;;
16543;SDS011;8384;47.996;7.786;2024-03-23T12:59:30;2.50;;;0.80;;
16543;SDS011;8384;47.996;7.786;2024-03-23T13:01:55;1.93;;;1.07;;
16543;SDS011;8384;47.996;7.786;2024-03-23T13:04:21;2.57;;;1.10;;
16543;SDS011;8384;47.996;7.786;2024-03-23T13:06:47;4.43;;;1.37;;
16543;SDS011;8384;47.996;7.786;2024-03-23T13:09:12;4.33;;;1.33;;
16543;SDS011;8384;47.996;7.786;2024-03-23T13:11:37;2.83;;;1.17;;
16543;SDS011;8384;47.996;7.786;2024-03-23T13:14:02;4.40;;;1.30;;
16543;SDS011;8384;47.996;7.786;2024-03-23T13:16:29;2.70;;;1.17;;
16543;SDS011;8384;47.996;7.786;2024-03-23T13:18:54;4.57;;;1.17;;
16543;SDS011;8384;47.996;7.786;2024-03-23T13:21:19;2.73;;;1.43;;
16543;SDS011;8384;47.996;7.786;2024-03-23T13:23:48;3.87;;;1.20;;
16543;SDS011;8384;47.996;7.786;2024-03-23T13:26:15;4.03;;;1.23;;
16543;SDS011;8384;47.996;7.786;2024-03-23T13:28:40;5.70;;;1.37;;
16543;SDS011;8384;47.996;7.786;2024-03-23T13:31:06;3.90;;;1.40;;
16543;SDS011;8384;47.996;7.786;2024-03-23T13:33:33;4.83;;;1.30;;
16543;SDS011;8384;47.996;7.786;2024-03-23T13:35:58;2.83;;;1.43;;
16543;SDS011;8384;47.996;7.786;2024-03-23T13:38:24;3.47;;;1.00;;
16543;SDS011;8384;47.996;7.786;2024-03-23T13:40:50;4.27;;;1.33;;
16543;SDS011;8384;47.996;7.786;2024-03-23T13:43:26;4.70;;;1.30;;
16543;SDS011;8384;47.996;7.786;2024-03-23T13:45:56;3.53;;;1.40;;
16543;SDS011;8384;47.996;7.786;2024-03-23T13:48:23;3.83;;;1.03;;
16543;SDS011;8384;47.996;7.786;2024-03-23T13:50:59;3.67;;;1.23;;
16543;SDS011;8384;47.996;7.786;2024-03-23T13:53:25;2.33;;;0.87;;
16543;SDS011;8384;47.996;7.786;2024-03-23T13:55:51;1.60;;;1.00;;
16543;SDS011;8384;47.996;7.786;2024-03-23T13:58:16;2.50;;;1.03;;
16543;SDS011;8384;47.996;7.786;2024-03-23T14:00:41;2.57;;;0.87;;
16543;SDS011;8384;47.996;7.786;2024-03-23T14:03:10;2.47;;;0.80;;
16543;SDS011;8384;47.996;7.786;2024-03-23T14:05:36;2.97;;;0.90;;
16543;SDS011;8384;47.996;7.786;2024-03-23T14:08:03;3.67;;;1.00;;
16543;SDS011;8384;47.996;7.786;2024-03-23T14:10:32;4.47;;;0.93;;
16543;SDS011;8384;47.996;7.786;2024-03-23T14:12:57;2.67;;;0.70;;
16543;SDS011;8384;47.996;7.786;2024-03-23T14:15:24;1.87;;;0.70;;
16543;SDS011;8384;47.996;7.786;2024-03-23T14:17:50;2.07;;;1.00;;
16543;SDS011;8384;47.996;7.786;2024-03-23T14:20:16;2.73;;;1.00;;
16543;SDS011;8384;47.996;7.786;2024-03-23T14:22:41;3.07;;;1.20;;
16543;SDS011;8384;47.996;7.786;2024-03-23T14:25:07;2.63;;;0.80;;
16543;SDS011;8384;47.996;7.786;2024-03-23T14:27:32;2.30;;;1.13;;
16543;SDS011;8384;47.996;7.786;2024-03-23T14:29:57;2.33;;;0.80;;
16543;SDS011;8384;47.996;7.786;2024-03-23T14:32:22;2.77;;;1.10;;
16543;SDS011;8384;47.996;7.786;2024-03-23T14:34:48;4.10;;;1.33;;
16543;SDS011;8384;47.996;7.786;2024-03-23T14:37:13;2.47;;;1.00;;
16543;SDS011;8384;47.996;7.786;2024-03-23T14:39:40;4.73;;;0.90;;
16543;SDS011;8384;47.996;7.786;2024-03-23T14:42:06;3.17;;;0.90;;
16543;SDS011;8384;47.996;7.786;2024-03-23T14:44:33;3.50;;;1.00;;
16543;SDS011;8384;47.996;7.786;2024-03-23T14:46:59;2.23;;;1.10;;
16543;SDS011;8384;47.996;7.786;2024-03-23T14:49:24;3.27;;;0.80;;
16543;SDS011;8384;47.996;7.786;2024-03-23T14:51:49;2.87;;;1.07;;
16543;SDS011;8384;47.996;7.786;2024-03-23T14:54:15;2.73;;;0.90;;
16543;SDS011;8384;47.996;7.786;2024-03-23T14:56:40;4.50;;;0.80;;
16543;SDS011;8384;47.996;7.786;2024-03-23T14:59:05;2.00;;;0.83;;
16543;SDS011;8384;47.996;7.786;2024-03-23T15:01:32;1.90;;;0.60;;
16543;SDS011;8384;47.996;7.786;2024-03-23T15:03:57;2.03;;;0.47;;
16543;SDS011;8384;47.996;7.786;2024-03-23T15:06:22;1.40;;;0.30;;
16543;SDS011;8384;47.996;7.786;2024-03-23T15:08:47;4.23;;;0.60;;
16543;SDS011;8384;47.996;7.786;2024-03-23T15:11:13;1.27;;;0.40;;
16543;SDS011;8384;47.996;7.786;2024-03-23T15:13:38;3.43;;;0.70;;
16543;SDS011;8384;47.996;7.786;2024-03-23T15:16:04;1.93;;;0.70;;
16543;SDS011;8384;47.996;7.786;2024-03-23T15:18:30;3.00;;;0.70;;
16543;SDS011;8384;47.996;7.786;2024-03-23T15:20:56;3.03;;;0.87;;
16543;SDS011;8384;47.996;7.786;2024-03-23T15:23:27;1.07;;;0.60;;
16543;SDS011;8384;47.996;7.786;2024-03-23T15:25:55;1.33;;;0.63;;
16543;SDS011;8384;47.996;7.786;2024-03-23T15:28:22;2.83;;;0.80;;
16543;SDS011;8384;47.996;7.786;2024-03-23T15:30:48;3.33;;;0.80;;
16543;SDS011;8384;47.996;7.786;2024-03-23T15:33:13;1.23;;;0.70;;
16543;SDS011;8384;47.996;7.786;2024-03-23T15:35:38;2.27;;;0.80;;
16543;SDS011;8384;47.996;7.786;2024-03-23T15:38:04;2.20;;;0.63;;
16543;SDS011;8384;47.996;7.786;2024-03-23T15:40:29;1.20;;;0.67;;
16543;SDS011;8384;47.996;7.786;2024-03-23T15:42:54;1.60;;;0.67;;
16543;SDS011;8384;47.996;7.786;2024-03-23T15:45:19;1.33;;;0.70;;
16543;SDS011;8384;47.996;7.786;2024-03-23T15:47:45;2.17;;;0.60;;
16543;SDS011;8384;47.996;7.786;2024-03-23T15:50:10;1.50;;;0.80;;
16543;SDS011;8384;47.996;7.786;2024-03-23T15:52:36;2.07;;;0.67;;
16543;SDS011;8384;47.996;7.786;2024-03-23T15:55:02;1.27;;;0.60;;
16543;SDS011;8384;47.996;7.786;2024-03-23T15:57:32;4.70;;;0.80;;
16543;SDS011;8384;47.996;7.786;2024-03-23T15:59:58;1.30;;;0.40;;
16543;SDS011;8384;47.996;7.786;2024-03-23T16:02:23;2.03;;;0.90;;